createdAt,value
2019-02-19T00:00:44.575Z,95765.44
2019-02-19T00:03:14.324Z,95760.09
2019-02-19T00:05:43.963Z,95761.43
2019-02-19T00:08:13.638Z,95761.95
2019-02-19T00:10:43.412Z,95760.42
2019-02-19T00:13:13.167Z,95761.13
2019-02-19T00:15:42.870Z,95761.72
2019-02-19T00:18:12.513Z,95763.10
2019-02-19T00:20:42.192Z,95756.30
2019-02-19T00:23:11.833Z,95753.81
2019-02-19T00:25:41.506Z,95756.48
2019-02-19T00:28:11.151Z,95745.19
2019-02-19T00:30:40.941Z,95744.16
2019-02-19T00:33:10.687Z,95754.73
2019-02-19T00:35:40.337Z,95751.94
2019-02-19T00:38:10.077Z,95753.58
2019-02-19T00:40:39.771Z,95749.48
2019-02-19T00:43:09.540Z,95746.17
2019-02-19T00:45:39.226Z,95741.60
2019-02-19T00:48:08.950Z,95748.51
2019-02-19T00:50:38.548Z,95751.06
2019-02-19T00:53:08.338Z,95743.75
2019-02-19T00:55:37.976Z,95738.98
2019-02-19T00:58:07.651Z,95743.41
2019-02-19T01:00:37.305Z,95743.09
2019-02-19T01:03:06.977Z,95743.28
2019-02-19T01:05:36.704Z,95740.20
2019-02-19T01:08:06.418Z,95735.19
2019-02-19T01:10:36.123Z,95733.52
2019-02-19T01:13:05.840Z,95725.83
2019-02-19T01:15:35.545Z,95727.17
2019-02-19T01:18:05.266Z,95723.98
2019-02-19T01:20:34.952Z,95719.45
2019-02-19T01:23:04.583Z,95716.07
2019-02-19T01:25:34.318Z,95717.41
2019-02-19T01:28:03.972Z,95715.44
2019-02-19T01:30:33.657Z,95715.77
2019-02-19T01:33:03.398Z,95714.10
2019-02-19T01:35:33.040Z,95714.62
2019-02-19T01:38:02.730Z,95711.95
2019-02-19T01:40:32.354Z,95711.95
2019-02-19T01:43:02.032Z,95708.45
2019-02-19T01:45:34.125Z,95706.48
2019-02-19T01:48:03.105Z,95705.36
2019-02-19T01:50:32.790Z,95692.81
2019-02-19T01:53:02.618Z,95690.14
2019-02-19T01:55:32.258Z,95693.52
2019-02-19T01:58:01.944Z,95695.16
2019-02-19T02:00:31.556Z,95689.91
2019-02-19T02:03:01.211Z,95688.88
2019-02-19T02:05:30.975Z,95688.57
2019-02-19T02:08:00.600Z,95677.88
2019-02-19T02:10:30.287Z,95685.48
2019-02-19T02:12:59.939Z,95682.92
2019-02-19T02:15:29.611Z,95688.27
2019-02-19T02:17:59.427Z,95683.04
2019-02-19T02:20:29.071Z,95680.85
2019-02-19T02:22:58.741Z,95681.89
2019-02-19T02:25:28.394Z,95680.85
2019-02-19T02:27:58.061Z,95684.05
2019-02-19T02:30:27.694Z,95682.08
2019-02-19T02:32:57.393Z,95682.59
2019-02-19T02:35:27.100Z,95687.94
2019-02-19T02:37:56.905Z,95684.45
2019-02-19T02:40:26.640Z,95680.14
2019-02-19T02:42:56.430Z,95683.93
2019-02-19T02:45:26.188Z,95685.08
2019-02-19T02:47:55.863Z,95688.05
2019-02-19T02:50:25.566Z,95681.07
2019-02-19T02:52:55.184Z,95688.57
2019-02-19T02:55:24.889Z,95689.09
2019-02-19T02:57:54.519Z,95686.82
2019-02-19T03:00:24.237Z,95688.27
2019-02-19T03:02:53.923Z,95683.93
2019-02-19T03:05:25.341Z,95690.02
2019-02-19T03:07:57.876Z,95686.61
2019-02-19T03:10:27.517Z,95683.62
2019-02-19T03:12:57.172Z,95685.27
2019-02-19T03:15:26.792Z,95688.67
2019-02-19T03:17:56.591Z,95688.16
2019-02-19T03:20:26.335Z,95688.86
2019-02-19T03:22:56.013Z,95685.38
2019-02-19T03:25:25.766Z,95685.16
2019-02-19T03:27:55.471Z,95687.01
2019-02-19T03:30:25.069Z,95691.02
2019-02-19T03:32:54.743Z,95684.11
2019-02-19T03:35:24.499Z,95686.07
2019-02-19T03:37:54.241Z,95689.38
2019-02-19T03:40:23.987Z,95683.52
2019-02-19T03:42:53.616Z,95695.95
2019-02-19T03:45:23.304Z,95697.28
2019-02-19T03:47:52.943Z,95684.44
2019-02-19T03:50:22.620Z,95685.77
2019-02-19T03:52:52.402Z,95687.92
2019-02-19T03:55:22.250Z,95685.77
2019-02-19T03:57:51.890Z,95685.38
2019-02-19T04:00:21.573Z,95679.91
2019-02-19T04:02:51.242Z,95687.23
2019-02-19T04:05:20.998Z,95687.01
2019-02-19T04:07:50.763Z,95684.73
2019-02-19T04:10:20.522Z,95686.37
2019-02-19T04:12:50.233Z,95686.70
2019-02-19T04:15:19.980Z,95685.03
2019-02-19T04:17:49.764Z,95682.36
2019-02-19T04:20:19.560Z,95680.61
2019-02-19T04:22:49.269Z,95682.88
2019-02-19T04:25:18.978Z,95690.59
2019-02-19T04:27:48.727Z,95676.08
2019-02-19T04:30:18.368Z,95682.06
2019-02-19T04:32:48.127Z,95686.37
2019-02-19T04:35:17.768Z,95688.05
2019-02-19T04:37:47.472Z,95692.57
2019-02-19T04:40:17.157Z,95696.58
2019-02-19T04:42:46.965Z,95692.57
2019-02-19T04:45:16.584Z,95703.15
2019-02-19T04:47:46.280Z,95692.57
2019-02-19T04:50:16.086Z,95697.47
2019-02-19T04:52:47.671Z,95705.07
2019-02-19T04:55:17.312Z,95702.22
2019-02-19T04:57:46.842Z,95691.80
2019-02-19T05:00:16.633Z,95686.87
2019-02-19T05:02:46.314Z,95683.34
2019-02-19T05:05:16.352Z,95685.28
2019-02-19T05:07:46.199Z,95687.63
2019-02-19T05:10:16.327Z,95684.29
2019-02-19T05:12:46.065Z,95685.32
2019-02-19T05:15:15.766Z,95687.57
2019-02-19T05:17:45.387Z,95686.23
2019-02-19T05:20:14.987Z,95685.60
2019-02-19T05:22:44.720Z,95690.58
2019-02-19T05:25:14.503Z,95681.96
2019-02-19T05:27:44.129Z,95683.08
2019-02-19T05:30:13.817Z,95682.84
2019-02-19T05:32:43.525Z,95689.39
2019-02-19T05:35:13.251Z,95711.02
2019-02-19T05:37:42.965Z,95717.08
2019-02-19T05:40:12.598Z,95720.74
2019-02-19T05:42:42.285Z,95732.77
2019-02-19T05:45:11.954Z,95736.86
2019-02-19T05:47:41.860Z,95738.07
2019-02-19T05:50:11.540Z,95731.47
2019-02-19T05:52:41.339Z,95732.17
2019-02-19T05:55:10.971Z,95740.51
2019-02-19T05:57:40.637Z,95741.30
2019-02-19T06:00:11.074Z,95734.97
2019-02-19T06:02:40.787Z,95729.22
2019-02-19T06:05:10.565Z,95729.82
2019-02-19T06:07:40.364Z,95727.86
2019-02-19T06:10:11.343Z,95732.25
2019-02-19T06:12:41.053Z,95728.87
2019-02-19T06:15:11.228Z,95739.38
2019-02-19T06:17:40.989Z,95743.22
2019-02-19T06:20:10.823Z,95754.28
2019-02-19T06:22:40.526Z,95758.11
2019-02-19T06:25:10.234Z,95754.48
2019-02-19T06:27:39.958Z,95758.36
2019-02-19T06:30:12.313Z,95761.70
2019-02-19T06:32:41.918Z,95763.47
2019-02-19T06:35:11.699Z,95757.44
2019-02-19T06:37:41.368Z,95754.74
2019-02-19T06:40:22.592Z,95754.63
2019-02-19T06:42:52.527Z,95756.22
2019-02-19T06:45:22.286Z,95758.44
2019-02-19T06:47:52.057Z,95750.16
2019-02-19T06:50:21.704Z,95755.71
2019-02-19T06:52:51.398Z,95758.08
2019-02-19T06:55:21.103Z,95756.66
2019-02-19T06:57:50.831Z,95756.47
2019-02-19T07:00:20.611Z,95756.77
2019-02-19T07:03:12.095Z,95754.23
2019-02-19T07:05:41.860Z,95759.88
2019-02-19T07:08:11.618Z,95756.56
2019-02-19T07:10:41.344Z,95756.51
2019-02-19T07:13:11.000Z,95755.87
2019-02-19T07:15:40.681Z,95751.80
2019-02-19T07:18:10.438Z,95756.81
2019-02-19T07:20:40.127Z,95758.58
2019-02-19T07:23:09.903Z,95760.25
2019-02-19T07:25:39.737Z,95756.41
2019-02-19T07:28:09.376Z,95759.09
2019-02-19T07:30:39.067Z,95758.91
2019-02-19T07:33:08.777Z,95759.21
2019-02-19T07:35:38.514Z,95762.52
2019-02-19T07:38:08.246Z,95762.01
2019-02-19T07:40:37.936Z,95758.64
2019-02-19T07:43:07.619Z,95756.52
2019-02-19T07:45:37.251Z,95754.38
2019-02-19T07:48:07.032Z,95752.41
2019-02-19T07:50:36.674Z,95757.03
2019-02-19T07:53:06.349Z,95755.57
2019-02-19T07:55:36.201Z,95760.48
2019-02-19T07:58:05.879Z,95758.94
2019-02-19T08:00:35.523Z,95758.00
2019-02-19T08:03:05.289Z,95755.02
2019-02-19T08:05:34.919Z,95752.41
2019-02-19T08:08:04.559Z,95749.05
2019-02-19T08:10:34.322Z,95747.13
2019-02-19T08:13:03.973Z,95740.66
2019-02-19T08:15:33.704Z,95741.91
2019-02-19T08:18:03.419Z,95741.05
2019-02-19T08:20:33.171Z,95722.36
2019-02-19T08:23:02.825Z,95730.59
2019-02-19T08:25:32.711Z,95720.81
2019-02-19T08:28:02.315Z,95721.69
2019-02-19T08:30:32.042Z,95725.00
2019-02-19T08:33:02.750Z,95726.97
2019-02-19T08:35:32.387Z,95727.27
2019-02-19T08:38:02.066Z,95727.09
2019-02-19T08:40:31.935Z,95729.37
2019-02-19T08:43:01.610Z,95727.52
2019-02-19T08:45:31.324Z,95723.30
2019-02-19T08:48:00.944Z,95727.42
2019-02-19T08:50:30.625Z,95721.95
2019-02-19T08:53:00.410Z,95726.02
2019-02-19T08:55:30.159Z,95723.35
2019-02-19T08:57:59.788Z,95718.61
2019-02-19T09:00:29.365Z,95724.71
2019-02-19T09:02:59.210Z,95721.39
2019-02-19T09:05:28.986Z,95719.54
2019-02-19T09:07:58.665Z,95717.88
2019-02-19T09:10:28.525Z,95709.69
2019-02-19T09:12:58.181Z,95713.12
2019-02-19T09:15:27.940Z,95714.56
2019-02-19T09:17:57.658Z,95711.30
2019-02-19T09:20:27.562Z,95707.59
2019-02-19T09:22:57.204Z,95708.22
2019-02-19T09:25:26.880Z,95706.55
2019-02-19T09:27:56.704Z,95700.71
2019-02-19T09:30:26.582Z,95703.69
2019-02-19T09:32:56.438Z,95704.84
2019-02-19T09:35:26.258Z,95703.98
2019-02-19T09:37:55.876Z,95705.77
2019-02-19T09:40:25.570Z,95713.35
2019-02-19T09:42:55.268Z,95712.64
2019-02-19T09:45:25.086Z,95711.19
2019-02-19T09:48:01.053Z,95701.00
2019-02-19T09:50:26.347Z,95701.00
2019-02-19T09:53:00.117Z,95697.48
2019-02-19T09:55:27.322Z,95689.68
2019-02-19T09:57:57.101Z,95693.09
2019-02-19T10:00:26.841Z,95685.15
2019-02-19T10:02:56.473Z,95687.01
2019-02-19T10:05:26.212Z,95679.20
2019-02-19T10:07:56.043Z,95673.74
2019-02-19T10:10:25.877Z,95673.44
2019-02-19T10:12:55.527Z,95667.16
2019-02-19T10:15:25.215Z,95658.21
2019-02-19T10:17:55.023Z,95657.28
2019-02-19T10:20:24.723Z,95655.42
2019-02-19T10:22:54.470Z,95650.52
2019-02-19T10:25:24.080Z,95653.19
2019-02-19T10:27:53.756Z,95645.68
2019-02-19T10:30:23.438Z,95639.41
2019-02-19T10:32:53.179Z,95640.03
2019-02-19T10:35:22.796Z,95632.30
2019-02-19T10:37:52.654Z,95635.71
2019-02-19T10:40:22.351Z,95624.06
2019-02-19T10:42:52.015Z,95621.06
2019-02-19T10:45:21.743Z,95621.66
2019-02-19T10:47:51.580Z,95612.41
2019-02-19T10:50:21.373Z,95604.50
2019-02-19T10:52:51.770Z,95598.41
2019-02-19T10:55:21.743Z,95596.97
2019-02-19T10:57:51.404Z,95590.71
2019-02-19T11:00:22.483Z,95584.22
2019-02-19T11:02:52.165Z,95581.25
2019-02-19T11:05:22.132Z,95579.61
2019-02-19T11:07:51.897Z,95573.11
2019-02-19T11:10:21.642Z,95572.30
2019-02-19T11:12:51.369Z,95568.47
2019-02-19T11:15:20.961Z,95564.57
2019-02-19T11:17:50.565Z,95563.26
2019-02-19T11:20:20.477Z,95555.64
2019-02-19T11:22:50.164Z,95554.31
2019-02-19T11:25:19.799Z,95553.56
2019-02-19T11:27:49.699Z,95548.73
2019-02-19T11:30:20.468Z,95550.37
2019-02-19T11:32:50.546Z,95542.04
2019-02-19T11:35:20.463Z,95539.06
2019-02-19T11:37:50.166Z,95534.53
2019-02-19T11:40:20.044Z,95533.30
2019-02-19T11:42:49.810Z,95526.84
2019-02-19T11:45:19.519Z,95526.63
2019-02-19T11:47:49.258Z,95519.94
2019-02-19T11:50:19.058Z,95509.23
2019-02-19T11:52:48.660Z,95515.91
2019-02-19T11:55:18.462Z,95512.01
2019-02-19T11:57:48.068Z,95498.31
2019-02-19T12:00:20.763Z,95501.41
2019-02-19T12:02:50.436Z,95501.28
2019-02-19T12:05:20.171Z,95494.21
2019-02-19T12:07:49.880Z,95499.95
2019-02-19T12:10:19.516Z,95491.01
2019-02-19T12:12:49.195Z,95484.23
2019-02-19T12:15:19.332Z,95486.08
2019-02-19T12:17:49.025Z,95480.63
2019-02-19T12:20:18.692Z,95480.63
2019-02-19T12:22:48.342Z,95472.09
2019-02-19T12:25:18.054Z,95471.67
2019-02-19T12:27:47.699Z,95464.88
2019-02-19T12:30:17.482Z,95461.09
2019-02-19T12:32:47.168Z,95455.22
2019-02-19T12:35:17.007Z,95459.43
2019-02-19T12:37:49.473Z,95453.34
2019-02-19T12:40:19.387Z,95448.20
2019-02-19T12:42:49.290Z,95440.28
2019-02-19T12:45:19.305Z,95439.05
2019-02-19T12:47:49.075Z,95437.28
2019-02-19T12:50:18.782Z,95431.44
2019-02-19T12:52:48.589Z,95431.64
2019-02-19T12:55:18.369Z,95426.09
2019-02-19T12:57:48.004Z,95431.31
2019-02-19T13:00:17.794Z,95424.42
2019-02-19T13:02:47.433Z,95422.77
2019-02-19T13:05:17.311Z,95421.13
2019-02-19T13:07:47.206Z,95415.06
2019-02-19T13:10:16.992Z,95417.64
2019-02-19T13:12:46.707Z,95411.77
2019-02-19T13:15:16.579Z,95407.55
2019-02-19T13:17:46.298Z,95406.09
2019-02-19T13:20:16.399Z,95402.59
2019-02-19T13:22:46.021Z,95404.94
2019-02-19T13:25:15.728Z,95406.48
2019-02-19T13:27:45.472Z,95403.17
2019-02-19T13:30:16.020Z,95402.55
2019-02-19T13:32:45.887Z,95400.17
2019-02-19T13:35:15.560Z,95399.59
2019-02-19T13:37:45.233Z,95396.52
2019-02-19T13:40:15.184Z,95399.27
2019-02-19T13:42:44.928Z,95394.10
2019-02-19T13:45:14.795Z,95393.38
2019-02-19T13:47:44.553Z,95399.25
2019-02-19T13:50:16.637Z,95393.27
2019-02-19T13:53:05.098Z,95393.13
2019-02-19T13:55:43.524Z,95390.39
2019-02-19T13:58:13.366Z,95389.87
2019-02-19T14:00:44.449Z,95392.02
2019-02-19T14:03:14.261Z,95387.48
2019-02-19T14:05:43.890Z,95388.30
2019-02-19T14:08:14.853Z,95386.97
2019-02-19T14:10:44.821Z,95387.39
2019-02-19T14:13:14.582Z,95382.95
2019-02-19T14:16:08.965Z,95380.89
2019-02-19T14:19:03.525Z,95375.25
2019-02-19T14:22:00.901Z,95378.64
2019-02-19T14:24:55.831Z,95382.04
2019-02-19T14:27:53.447Z,95379.07
2019-02-19T14:30:50.761Z,95379.17
2019-02-19T14:33:29.036Z,95373.72
2019-02-19T14:36:10.330Z,95371.73
2019-02-19T14:39:07.945Z,95371.86
2019-02-19T14:41:59.543Z,95366.61
2019-02-19T14:44:46.927Z,95363.64
2019-02-19T14:47:38.268Z,95363.45
2019-02-19T14:50:26.836Z,95362.69
2019-02-19T14:53:14.256Z,95362.30
2019-02-19T14:55:55.029Z,95362.69
2019-02-19T14:58:34.452Z,95357.23
2019-02-19T15:01:30.269Z,95359.29
2019-02-19T15:04:21.520Z,95360.92
2019-02-19T15:07:15.716Z,95355.05
2019-02-19T15:10:02.756Z,95357.30
2019-02-19T15:12:47.381Z,95362.39
2019-02-19T15:15:51.060Z,95356.19
2019-02-19T15:18:38.493Z,95356.19
2019-02-19T15:21:32.595Z,95356.48
2019-02-19T15:24:21.679Z,95352.89
2019-02-19T15:27:19.299Z,95351.59
2019-02-19T15:30:18.717Z,95348.31
2019-02-19T15:33:13.255Z,95353.13
2019-02-19T15:36:13.627Z,95351.22
2019-02-19T15:39:08.446Z,95354.90
2019-02-19T15:41:56.866Z,95355.84
2019-02-19T15:44:54.477Z,95355.84
2019-02-19T15:47:49.036Z,95349.16
2019-02-19T15:50:36.452Z,95354.73
2019-02-19T15:53:43.178Z,95350.39
2019-02-19T15:56:37.636Z,95358.03
2019-02-19T15:59:38.167Z,95358.23
2019-02-19T16:02:25.279Z,95360.83
2019-02-19T16:05:19.771Z,95363.59
2019-02-19T16:08:15.164Z,95363.80
2019-02-19T16:11:01.555Z,95372.45
2019-02-19T16:13:45.234Z,95366.05
2019-02-19T16:16:32.281Z,95374.80
2019-02-19T16:19:32.815Z,95375.28
2019-02-19T16:22:21.522Z,95373.66
2019-02-19T16:25:02.109Z,95374.57
2019-02-19T16:27:43.447Z,95382.30
2019-02-19T16:30:31.938Z,95376.20
2019-02-19T16:33:19.324Z,95376.20
2019-02-19T16:35:58.505Z,95377.37
2019-02-19T16:38:36.572Z,95374.30
2019-02-19T16:41:28.067Z,95379.23
2019-02-19T16:44:15.042Z,95381.58
2019-02-19T16:47:00.424Z,95384.35
2019-02-19T16:49:50.222Z,95387.13
2019-02-19T16:52:37.344Z,95382.69
2019-02-19T16:55:16.590Z,95378.78
2019-02-19T16:57:51.650Z,95383.70
2019-02-19T17:00:45.834Z,95386.67
2019-02-19T17:03:39.059Z,95379.76
2019-02-19T17:06:33.541Z,95384.09
2019-02-19T17:09:20.153Z,95384.09
2019-02-19T17:12:08.582Z,95381.32
2019-02-19T17:14:46.967Z,95374.02
2019-02-19T17:17:31.360Z,95374.41
2019-02-19T17:20:29.691Z,95384.09
2019-02-19T17:23:36.599Z,95384.62
2019-02-19T17:26:15.402Z,95384.09
2019-02-19T17:28:59.605Z,95384.09
2019-02-19T17:31:35.255Z,95385.72
2019-02-19T17:34:17.355Z,95382.53
2019-02-19T17:37:15.242Z,95386.54
2019-02-19T17:40:06.577Z,95390.16
2019-02-19T17:42:51.644Z,95389.64
2019-02-19T17:45:33.864Z,95392.02
2019-02-19T17:48:14.835Z,95395.52
2019-02-19T17:51:15.463Z,95391.08
2019-02-19T17:54:12.697Z,95399.63
2019-02-19T17:56:59.772Z,95389.34
2019-02-19T17:59:46.998Z,95398.35
2019-02-19T18:02:26.359Z,95400.86
2019-02-19T18:05:13.081Z,95400.97
2019-02-19T18:07:50.558Z,95389.77
2019-02-19T18:10:39.008Z,95399.01
2019-02-19T18:13:33.641Z,95395.81
2019-02-19T18:16:15.332Z,95394.60
2019-02-19T18:18:49.533Z,95400.58
2019-02-19T18:21:20.109Z,95397.67
2019-02-19T18:23:49.915Z,95390.59
2019-02-19T18:26:19.568Z,95396.85
2019-02-19T18:28:49.384Z,95396.04
2019-02-19T18:31:20.630Z,95401.81
2019-02-19T18:33:50.225Z,95402.92
2019-02-19T18:36:20.194Z,95400.15
2019-02-19T18:38:49.875Z,95400.47
2019-02-19T18:41:19.656Z,95403.97
2019-02-19T18:43:49.387Z,95396.33
2019-02-19T18:46:19.139Z,95399.63
2019-02-19T18:48:48.899Z,95402.59
2019-02-19T18:51:18.717Z,95401.26
2019-02-19T18:53:48.544Z,95402.59
2019-02-19T18:56:18.328Z,95400.25
2019-02-19T18:58:48.378Z,95404.06
2019-02-19T19:01:17.870Z,95393.56
2019-02-19T19:03:47.567Z,95403.12
2019-02-19T19:06:18.362Z,95406.61
2019-02-19T19:08:48.329Z,95399.92
2019-02-19T19:11:18.052Z,95405.50
2019-02-19T19:13:47.733Z,95408.89
2019-02-19T19:16:17.663Z,95418.98
2019-02-19T19:18:47.152Z,95419.92
2019-02-19T19:21:16.877Z,95417.15
2019-02-19T19:23:46.506Z,95416.69
2019-02-19T19:26:16.194Z,95415.68
2019-02-19T19:28:45.827Z,95418.69
2019-02-19T19:31:15.507Z,95422.17
2019-02-19T19:33:45.212Z,95422.50
2019-02-19T19:36:14.955Z,95428.64
2019-02-19T19:38:44.735Z,95431.24
2019-02-19T19:41:14.429Z,95432.58
2019-02-19T19:43:44.068Z,95440.17
2019-02-19T19:46:13.781Z,95432.35
2019-02-19T19:48:43.498Z,95437.31
2019-02-19T19:51:17.277Z,95431.24
2019-02-19T19:53:44.865Z,95437.31
2019-02-19T19:56:14.578Z,95435.94
2019-02-19T19:58:44.419Z,95435.74
2019-02-19T20:01:13.998Z,95437.94
2019-02-19T20:03:43.698Z,95443.58
2019-02-19T20:06:13.328Z,95440.17
2019-02-19T20:08:43.119Z,95441.33
2019-02-19T20:11:12.821Z,95441.33
2019-02-19T20:13:42.644Z,95441.92
2019-02-19T20:16:12.342Z,95437.19
2019-02-19T20:18:42.280Z,95438.62
2019-02-19T20:21:11.993Z,95448.91
2019-02-19T20:23:41.635Z,95447.50
2019-02-19T20:26:11.398Z,95443.97
2019-02-19T20:28:41.125Z,95447.98
2019-02-19T20:31:10.928Z,95444.27
2019-02-19T20:33:40.562Z,95443.35
2019-02-19T20:36:10.346Z,95445.73
2019-02-19T20:38:39.969Z,95445.24
2019-02-19T20:41:09.766Z,95447.80
2019-02-19T20:43:39.500Z,95449.03
2019-02-19T20:46:09.187Z,95446.58
2019-02-19T20:48:38.942Z,95445.24
2019-02-19T20:51:08.537Z,95445.44
2019-02-19T20:53:38.525Z,95446.05
2019-02-19T20:56:08.228Z,95443.58
2019-02-19T20:58:38.125Z,95435.13
2019-02-19T21:01:07.941Z,95445.85
2019-02-19T21:03:37.777Z,95444.19
2019-02-19T21:06:07.779Z,95437.83
2019-02-19T21:08:37.496Z,95436.29
2019-02-19T21:11:07.396Z,95433.48
2019-02-19T21:13:37.271Z,95429.58
2019-02-19T21:16:07.226Z,95433.39
2019-02-19T21:18:36.971Z,95428.47
2019-02-19T21:21:08.366Z,95428.14
2019-02-19T21:23:38.233Z,95429.91
2019-02-19T21:26:08.123Z,95434.34
2019-02-19T21:28:38.043Z,95435.45
2019-02-19T21:31:07.858Z,95432.48
2019-02-19T21:33:37.990Z,95426.09
2019-02-19T21:36:07.885Z,95425.47
2019-02-19T21:38:37.718Z,95427.42
2019-02-19T21:41:07.908Z,95429.80
2019-02-19T21:43:37.823Z,95436.16
2019-02-19T21:46:07.761Z,95430.09
2019-02-19T21:48:37.676Z,95442.03
2019-02-19T21:51:07.544Z,95439.59
2019-02-19T21:53:37.403Z,95438.64
2019-02-19T21:56:07.402Z,95444.61
2019-02-19T21:58:37.229Z,95444.52
2019-02-19T22:01:07.132Z,95445.23
2019-02-19T22:03:36.911Z,95435.97
2019-02-19T22:06:06.815Z,95442.55
2019-02-19T22:08:36.603Z,95446.27
2019-02-19T22:11:06.722Z,95447.80
2019-02-19T22:13:36.687Z,95445.66
2019-02-19T22:16:06.562Z,95453.06
2019-02-19T22:18:36.550Z,95450.16
2019-02-19T22:21:25.298Z,95451.82
2019-02-19T22:23:55.143Z,95445.75
2019-02-19T22:26:25.029Z,95445.66
2019-02-19T22:28:55.045Z,95444.94
2019-02-19T22:31:24.859Z,95446.27
2019-02-19T22:33:54.743Z,95450.19
2019-02-19T22:36:24.542Z,95454.72
2019-02-19T22:38:54.512Z,95451.72
2019-02-19T22:41:24.388Z,95455.73
2019-02-19T22:43:54.347Z,95452.05
2019-02-19T22:46:24.152Z,95452.05
2019-02-19T22:48:53.972Z,95451.63
2019-02-19T22:51:24.019Z,95451.52
2019-02-19T22:54:24.817Z,95449.86
2019-02-19T22:56:54.660Z,95452.05
2019-02-19T22:59:24.555Z,95447.61
2019-02-19T23:02:15.970Z,95452.11
2019-02-19T23:04:45.793Z,95458.61
2019-02-19T23:07:15.740Z,95449.96
2019-02-19T23:09:45.612Z,95451.00
2019-02-19T23:12:15.370Z,95452.11
2019-02-19T23:14:45.294Z,95454.79
2019-02-19T23:17:15.334Z,95445.95
2019-02-19T23:19:45.093Z,95452.44
2019-02-19T23:22:21.350Z,95452.96
2019-02-19T23:24:46.496Z,95459.74
2019-02-19T23:27:16.403Z,95455.02
2019-02-19T23:29:46.194Z,95462.62
2019-02-19T23:32:16.115Z,95458.80
2019-02-19T23:34:46.937Z,95460.06
2019-02-19T23:37:19.359Z,95457.39
2019-02-19T23:39:49.322Z,95461.48
2019-02-19T23:42:19.128Z,95453.88
2019-02-19T23:44:49.068Z,95464.90
2019-02-19T23:47:19.101Z,95462.42
2019-02-19T23:49:49.005Z,95468.91
2019-02-19T23:52:18.934Z,95473.45
2019-02-19T23:54:48.806Z,95475.79
2019-02-19T23:57:18.685Z,95481.47
2019-02-19T23:59:48.542Z,95474.45
